sensor_id;sensor_type;location;lat;lon;timestamp;P1;durP1;ratioP1;P2;durP2;ratioP2
14686;SDS011;7431;49.440;11.084;2023-05-17T00:00:50;3.17;;;1.70;;
14686;SDS011;7431;49.440;11.084;2023-05-17T00:03:16;2.90;;;1.70;;
14686;SDS011;7431;49.440;11.084;2023-05-17T00:05:42;3.63;;;1.90;;
14686;SDS011;7431;49.440;11.084;2023-05-17T00:08:08;2.17;;;1.63;;
14686;SDS011;7431;49.440;11.084;2023-05-17T00:10:33;2.70;;;1.70;;
14686;SDS011;7431;49.440;11.084;2023-05-17T00:13:00;3.93;;;1.87;;
14686;SDS011;7431;49.440;11.084;2023-05-17T00:15:26;4.17;;;1.97;;
14686;SDS011;7431;49.440;11.084;2023-05-17T00:17:51;3.07;;;1.73;;
14686;SDS011;7431;49.440;11.084;2023-05-17T00:20:17;6.37;;;2.00;;
14686;SDS011;7431;49.440;11.084;2023-05-17T00:22:43;4.77;;;2.00;;
14686;SDS011;7431;49.440;11.084;2023-05-17T00:25:11;3.50;;;1.93;;
14686;SDS011;7431;49.440;11.084;2023-05-17T00:27:37;4.77;;;1.87;;
14686;SDS011;7431;49.440;11.084;2023-05-17T00:30:03;3.03;;;1.73;;
14686;SDS011;7431;49.440;11.084;2023-05-17T00:32:29;3.40;;;1.77;;
14686;SDS011;7431;49.440;11.084;2023-05-17T00:34:55;2.97;;;1.73;;
14686;SDS011;7431;49.440;11.084;2023-05-17T00:37:21;5.20;;;2.10;;
14686;SDS011;7431;49.440;11.084;2023-05-17T00:39:47;5.13;;;1.90;;
14686;SDS011;7431;49.440;11.084;2023-05-17T00:42:13;3.83;;;1.87;;
14686;SDS011;7431;49.440;11.084;2023-05-17T00:44:39;3.67;;;1.87;;
14686;SDS011;7431;49.440;11.084;2023-05-17T00:47:05;4.63;;;1.90;;
14686;SDS011;7431;49.440;11.084;2023-05-17T00:49:31;5.20;;;2.20;;
14686;SDS011;7431;49.440;11.084;2023-05-17T00:51:58;3.00;;;1.83;;
14686;SDS011;7431;49.440;11.084;2023-05-17T00:54:24;2.37;;;2.07;;
14686;SDS011;7431;49.440;11.084;2023-05-17T00:56:51;3.03;;;1.80;;
14686;SDS011;7431;49.440;11.084;2023-05-17T00:59:17;4.07;;;1.90;;
14686;SDS011;7431;49.440;11.084;2023-05-17T01:01:44;4.07;;;1.63;;
14686;SDS011;7431;49.440;11.084;2023-05-17T01:04:10;3.03;;;1.70;;
14686;SDS011;7431;49.440;11.084;2023-05-17T01:06:36;6.23;;;1.70;;
14686;SDS011;7431;49.440;11.084;2023-05-17T01:09:02;3.10;;;1.70;;
14686;SDS011;7431;49.440;11.084;2023-05-17T01:16:55;2.23;;;1.50;;
14686;SDS011;7431;49.440;11.084;2023-05-17T01:22:20;3.50;;;1.60;;
14686;SDS011;7431;49.440;11.084;2023-05-17T01:27:51;4.53;;;1.80;;
14686;SDS011;7431;49.440;11.084;2023-05-17T01:30:19;2.33;;;1.80;;
14686;SDS011;7431;49.440;11.084;2023-05-17T01:32:45;3.13;;;1.80;;
14686;SDS011;7431;49.440;11.084;2023-05-17T01:35:11;3.90;;;1.67;;
14686;SDS011;7431;49.440;11.084;2023-05-17T01:37:37;4.40;;;2.23;;
14686;SDS011;7431;49.440;11.084;2023-05-17T01:40:04;3.77;;;2.00;;
14686;SDS011;7431;49.440;11.084;2023-05-17T01:42:32;4.90;;;1.80;;
14686;SDS011;7431;49.440;11.084;2023-05-17T01:45:07;3.97;;;1.87;;
14686;SDS011;7431;49.440;11.084;2023-05-17T01:50:13;4.47;;;1.73;;
14686;SDS011;7431;49.440;11.084;2023-05-17T01:52:51;3.57;;;1.80;;
14686;SDS011;7431;49.440;11.084;2023-05-17T01:58:20;2.73;;;1.37;;
14686;SDS011;7431;49.440;11.084;2023-05-17T02:00:47;4.37;;;1.43;;
14686;SDS011;7431;49.440;11.084;2023-05-17T02:03:17;3.73;;;1.63;;
14686;SDS011;7431;49.440;11.084;2023-05-17T02:05:43;6.63;;;2.03;;
14686;SDS011;7431;49.440;11.084;2023-05-17T02:08:09;2.97;;;1.97;;
14686;SDS011;7431;49.440;11.084;2023-05-17T02:10:35;2.87;;;1.50;;
14686;SDS011;7431;49.440;11.084;2023-05-17T02:13:01;6.50;;;1.83;;
14686;SDS011;7431;49.440;11.084;2023-05-17T02:15:27;3.77;;;1.70;;
14686;SDS011;7431;49.440;11.084;2023-05-17T02:17:53;2.50;;;1.40;;
14686;SDS011;7431;49.440;11.084;2023-05-17T02:20:19;3.47;;;1.60;;
14686;SDS011;7431;49.440;11.084;2023-05-17T02:22:45;3.40;;;1.87;;
14686;SDS011;7431;49.440;11.084;2023-05-17T02:25:11;3.70;;;1.63;;
14686;SDS011;7431;49.440;11.084;2023-05-17T02:27:37;2.53;;;1.43;;
14686;SDS011;7431;49.440;11.084;2023-05-17T02:30:03;3.43;;;2.00;;
14686;SDS011;7431;49.440;11.084;2023-05-17T02:32:30;2.13;;;1.77;;
14686;SDS011;7431;49.440;11.084;2023-05-17T02:34:57;3.37;;;1.70;;
14686;SDS011;7431;49.440;11.084;2023-05-17T02:37:23;3.87;;;2.00;;
14686;SDS011;7431;49.440;11.084;2023-05-17T02:39:49;2.47;;;1.70;;
14686;SDS011;7431;49.440;11.084;2023-05-17T02:42:15;4.70;;;2.00;;
14686;SDS011;7431;49.440;11.084;2023-05-17T02:44:41;3.07;;;1.60;;
14686;SDS011;7431;49.440;11.084;2023-05-17T02:47:07;3.47;;;1.80;;
14686;SDS011;7431;49.440;11.084;2023-05-17T02:49:33;5.53;;;2.13;;
14686;SDS011;7431;49.440;11.084;2023-05-17T02:51:59;3.23;;;1.80;;
14686;SDS011;7431;49.440;11.084;2023-05-17T02:54:26;2.43;;;1.90;;
14686;SDS011;7431;49.440;11.084;2023-05-17T02:56:52;4.07;;;1.70;;
14686;SDS011;7431;49.440;11.084;2023-05-17T02:59:18;3.70;;;1.83;;
14686;SDS011;7431;49.440;11.084;2023-05-17T03:01:44;5.67;;;1.90;;
14686;SDS011;7431;49.440;11.084;2023-05-17T03:04:10;3.07;;;2.00;;
14686;SDS011;7431;49.440;11.084;2023-05-17T03:06:36;2.20;;;1.90;;
14686;SDS011;7431;49.440;11.084;2023-05-17T03:09:02;5.57;;;2.23;;
14686;SDS011;7431;49.440;11.084;2023-05-17T03:11:28;4.13;;;1.73;;
14686;SDS011;7431;49.440;11.084;2023-05-17T03:13:54;4.23;;;1.90;;
14686;SDS011;7431;49.440;11.084;2023-05-17T03:16:20;3.80;;;1.60;;
14686;SDS011;7431;49.440;11.084;2023-05-17T03:18:46;5.93;;;2.00;;
14686;SDS011;7431;49.440;11.084;2023-05-17T03:21:12;5.20;;;2.00;;
14686;SDS011;7431;49.440;11.084;2023-05-17T03:23:38;5.20;;;2.23;;
14686;SDS011;7431;49.440;11.084;2023-05-17T03:26:04;6.10;;;2.30;;
14686;SDS011;7431;49.440;11.084;2023-05-17T03:28:30;2.80;;;1.90;;
14686;SDS011;7431;49.440;11.084;2023-05-17T03:30:56;3.10;;;2.00;;
14686;SDS011;7431;49.440;11.084;2023-05-17T03:33:22;3.90;;;2.10;;
14686;SDS011;7431;49.440;11.084;2023-05-17T03:35:48;2.93;;;1.97;;
14686;SDS011;7431;49.440;11.084;2023-05-17T03:38:14;4.30;;;1.93;;
14686;SDS011;7431;49.440;11.084;2023-05-17T03:40:40;4.17;;;2.07;;
14686;SDS011;7431;49.440;11.084;2023-05-17T03:43:06;6.57;;;1.90;;
14686;SDS011;7431;49.440;11.084;2023-05-17T03:45:32;6.70;;;1.90;;
14686;SDS011;7431;49.440;11.084;2023-05-17T03:47:58;2.60;;;2.07;;
14686;SDS011;7431;49.440;11.084;2023-05-17T03:50:24;3.80;;;2.00;;
14686;SDS011;7431;49.440;11.084;2023-05-17T03:52:50;6.83;;;2.27;;
14686;SDS011;7431;49.440;11.084;2023-05-17T03:55:16;4.17;;;1.90;;
14686;SDS011;7431;49.440;11.084;2023-05-17T03:57:42;7.37;;;2.10;;
14686;SDS011;7431;49.440;11.084;2023-05-17T04:00:08;2.47;;;1.83;;
14686;SDS011;7431;49.440;11.084;2023-05-17T04:02:36;8.03;;;2.60;;
14686;SDS011;7431;49.440;11.084;2023-05-17T04:05:01;3.50;;;1.40;;
14686;SDS011;7431;49.440;11.084;2023-05-17T04:07:27;3.70;;;1.97;;
14686;SDS011;7431;49.440;11.084;2023-05-17T04:09:57;3.10;;;2.00;;
14686;SDS011;7431;49.440;11.084;2023-05-17T04:12:23;3.00;;;1.80;;
14686;SDS011;7431;49.440;11.084;2023-05-17T04:14:49;6.63;;;2.10;;
14686;SDS011;7431;49.440;11.084;2023-05-17T04:17:15;3.80;;;1.90;;
14686;SDS011;7431;49.440;11.084;2023-05-17T04:19:41;4.70;;;2.00;;
14686;SDS011;7431;49.440;11.084;2023-05-17T04:22:07;3.77;;;1.80;;
14686;SDS011;7431;49.440;11.084;2023-05-17T04:24:33;4.27;;;2.00;;
14686;SDS011;7431;49.440;11.084;2023-05-17T04:26:59;3.83;;;2.03;;
14686;SDS011;7431;49.440;11.084;2023-05-17T04:29:25;5.10;;;2.00;;
14686;SDS011;7431;49.440;11.084;2023-05-17T04:31:51;4.53;;;2.17;;
14686;SDS011;7431;49.440;11.084;2023-05-17T04:34:17;2.37;;;1.70;;
14686;SDS011;7431;49.440;11.084;2023-05-17T04:36:43;4.03;;;2.30;;
14686;SDS011;7431;49.440;11.084;2023-05-17T04:39:09;2.33;;;1.47;;
14686;SDS011;7431;49.440;11.084;2023-05-17T04:41:35;4.13;;;1.97;;
14686;SDS011;7431;49.440;11.084;2023-05-17T04:44:01;3.80;;;1.93;;
14686;SDS011;7431;49.440;11.084;2023-05-17T04:46:28;4.40;;;1.90;;
14686;SDS011;7431;49.440;11.084;2023-05-17T04:48:54;4.10;;;2.50;;
14686;SDS011;7431;49.440;11.084;2023-05-17T04:51:20;2.43;;;1.67;;
14686;SDS011;7431;49.440;11.084;2023-05-17T04:53:46;4.87;;;2.03;;
14686;SDS011;7431;49.440;11.084;2023-05-17T04:56:12;3.07;;;1.93;;
14686;SDS011;7431;49.440;11.084;2023-05-17T04:58:38;3.73;;;1.90;;
14686;SDS011;7431;49.440;11.084;2023-05-17T05:01:04;2.80;;;2.00;;
14686;SDS011;7431;49.440;11.084;2023-05-17T05:03:30;4.50;;;2.10;;
14686;SDS011;7431;49.440;11.084;2023-05-17T05:05:56;6.43;;;2.10;;
14686;SDS011;7431;49.440;11.084;2023-05-17T05:08:22;3.53;;;1.73;;
14686;SDS011;7431;49.440;11.084;2023-05-17T05:10:48;5.90;;;2.17;;
14686;SDS011;7431;49.440;11.084;2023-05-17T05:13:15;3.27;;;1.90;;
14686;SDS011;7431;49.440;11.084;2023-05-17T05:15:41;3.83;;;2.30;;
14686;SDS011;7431;49.440;11.084;2023-05-17T05:18:07;4.03;;;2.07;;
14686;SDS011;7431;49.440;11.084;2023-05-17T05:20:33;3.60;;;2.00;;
14686;SDS011;7431;49.440;11.084;2023-05-17T05:22:59;4.30;;;2.13;;
14686;SDS011;7431;49.440;11.084;2023-05-17T05:25:27;7.47;;;2.47;;
14686;SDS011;7431;49.440;11.084;2023-05-17T05:27:53;4.80;;;2.87;;
14686;SDS011;7431;49.440;11.084;2023-05-17T05:30:19;6.20;;;2.50;;
14686;SDS011;7431;49.440;11.084;2023-05-17T05:32:48;7.23;;;2.40;;
14686;SDS011;7431;49.440;11.084;2023-05-17T05:35:15;6.30;;;2.70;;
14686;SDS011;7431;49.440;11.084;2023-05-17T05:37:41;5.87;;;2.47;;
14686;SDS011;7431;49.440;11.084;2023-05-17T05:40:08;3.20;;;2.20;;
14686;SDS011;7431;49.440;11.084;2023-05-17T05:42:34;3.93;;;1.97;;
14686;SDS011;7431;49.440;11.084;2023-05-17T05:45:00;5.03;;;2.37;;
14686;SDS011;7431;49.440;11.084;2023-05-17T05:47:26;4.90;;;2.70;;
14686;SDS011;7431;49.440;11.084;2023-05-17T05:49:52;5.37;;;2.10;;
14686;SDS011;7431;49.440;11.084;2023-05-17T05:52:18;5.53;;;2.67;;
14686;SDS011;7431;49.440;11.084;2023-05-17T05:54:44;5.97;;;2.57;;
14686;SDS011;7431;49.440;11.084;2023-05-17T05:57:11;4.60;;;2.40;;
14686;SDS011;7431;49.440;11.084;2023-05-17T05:59:36;2.87;;;2.00;;
14686;SDS011;7431;49.440;11.084;2023-05-17T06:02:03;4.33;;;2.60;;
14686;SDS011;7431;49.440;11.084;2023-05-17T06:04:29;7.43;;;3.00;;
14686;SDS011;7431;49.440;11.084;2023-05-17T06:06:55;4.80;;;2.20;;
14686;SDS011;7431;49.440;11.084;2023-05-17T06:09:20;5.40;;;2.85;;
14686;SDS011;7431;49.440;11.084;2023-05-17T06:11:46;3.90;;;2.65;;
14686;SDS011;7431;49.440;11.084;2023-05-17T06:14:12;4.70;;;2.45;;
14686;SDS011;7431;49.440;11.084;2023-05-17T06:16:38;3.90;;;2.20;;
14686;SDS011;7431;49.440;11.084;2023-05-17T06:19:05;7.55;;;2.50;;
14686;SDS011;7431;49.440;11.084;2023-05-17T06:21:31;8.80;;;2.30;;
14686;SDS011;7431;49.440;11.084;2023-05-17T06:23:57;6.10;;;2.40;;
14686;SDS011;7431;49.440;11.084;2023-05-17T06:26:23;4.70;;;2.43;;
14686;SDS011;7431;49.440;11.084;2023-05-17T06:28:49;5.83;;;2.70;;
14686;SDS011;7431;49.440;11.084;2023-05-17T06:31:15;5.50;;;2.40;;
14686;SDS011;7431;49.440;11.084;2023-05-17T06:33:41;4.60;;;2.10;;
14686;SDS011;7431;49.440;11.084;2023-05-17T06:36:07;4.77;;;2.40;;
14686;SDS011;7431;49.440;11.084;2023-05-17T06:38:33;5.47;;;2.80;;
14686;SDS011;7431;49.440;11.084;2023-05-17T06:40:59;6.43;;;3.07;;
14686;SDS011;7431;49.440;11.084;2023-05-17T06:43:25;6.73;;;2.70;;
14686;SDS011;7431;49.440;11.084;2023-05-17T06:45:51;5.40;;;3.00;;
14686;SDS011;7431;49.440;11.084;2023-05-17T06:48:17;5.73;;;3.17;;
14686;SDS011;7431;49.440;11.084;2023-05-17T06:50:43;5.00;;;2.63;;
14686;SDS011;7431;49.440;11.084;2023-05-17T06:53:09;6.53;;;2.80;;
14686;SDS011;7431;49.440;11.084;2023-05-17T06:55:35;4.87;;;2.70;;
14686;SDS011;7431;49.440;11.084;2023-05-17T06:58:01;4.60;;;2.73;;
14686;SDS011;7431;49.440;11.084;2023-05-17T07:00:27;4.27;;;2.80;;
14686;SDS011;7431;49.440;11.084;2023-05-17T07:02:54;5.77;;;3.17;;
14686;SDS011;7431;49.440;11.084;2023-05-17T07:05:20;6.70;;;3.37;;
14686;SDS011;7431;49.440;11.084;2023-05-17T07:07:48;4.88;;;2.53;;
14686;SDS011;7431;49.440;11.084;2023-05-17T07:10:14;5.63;;;2.90;;
14686;SDS011;7431;49.440;11.084;2023-05-17T07:12:40;5.67;;;3.03;;
14686;SDS011;7431;49.440;11.084;2023-05-17T07:15:06;8.10;;;3.07;;
14686;SDS011;7431;49.440;11.084;2023-05-17T07:17:32;5.77;;;3.07;;
14686;SDS011;7431;49.440;11.084;2023-05-17T07:19:58;5.97;;;2.73;;
14686;SDS011;7431;49.440;11.084;2023-05-17T07:22:24;7.50;;;3.10;;
14686;SDS011;7431;49.440;11.084;2023-05-17T07:24:50;9.87;;;3.30;;
14686;SDS011;7431;49.440;11.084;2023-05-17T07:27:16;7.13;;;3.17;;
14686;SDS011;7431;49.440;11.084;2023-05-17T07:29:42;6.17;;;2.77;;
14686;SDS011;7431;49.440;11.084;2023-05-17T07:32:08;7.03;;;3.47;;
14686;SDS011;7431;49.440;11.084;2023-05-17T07:34:34;4.57;;;2.67;;
14686;SDS011;7431;49.440;11.084;2023-05-17T07:37:01;5.25;;;2.97;;
14686;SDS011;7431;49.440;11.084;2023-05-17T07:39:27;5.40;;;2.90;;
14686;SDS011;7431;49.440;11.084;2023-05-17T07:41:53;5.93;;;3.13;;
14686;SDS011;7431;49.440;11.084;2023-05-17T07:44:19;3.70;;;2.60;;
14686;SDS011;7431;49.440;11.084;2023-05-17T07:46:46;4.75;;;2.70;;
14686;SDS011;7431;49.440;11.084;2023-05-17T07:49:12;5.88;;;3.05;;
14686;SDS011;7431;49.440;11.084;2023-05-17T07:51:38;5.28;;;2.75;;
14686;SDS011;7431;49.440;11.084;2023-05-17T07:54:04;5.65;;;2.85;;
14686;SDS011;7431;49.440;11.084;2023-05-17T07:56:31;5.30;;;3.00;;
14686;SDS011;7431;49.440;11.084;2023-05-17T07:58:57;6.13;;;2.95;;
14686;SDS011;7431;49.440;11.084;2023-05-17T08:01:23;6.18;;;3.28;;
14686;SDS011;7431;49.440;11.084;2023-05-17T08:03:49;3.63;;;2.92;;
14686;SDS011;7431;49.440;11.084;2023-05-17T08:06:16;5.35;;;3.40;;
14686;SDS011;7431;49.440;11.084;2023-05-17T08:08:42;5.30;;;3.15;;
14686;SDS011;7431;49.440;11.084;2023-05-17T08:11:09;5.68;;;3.35;;
14686;SDS011;7431;49.440;11.084;2023-05-17T08:13:35;7.55;;;3.10;;
14686;SDS011;7431;49.440;11.084;2023-05-17T08:16:01;5.97;;;3.20;;
14686;SDS011;7431;49.440;11.084;2023-05-17T08:18:30;5.20;;;3.47;;
14686;SDS011;7431;49.440;11.084;2023-05-17T08:20:56;6.20;;;3.50;;
14686;SDS011;7431;49.440;11.084;2023-05-17T08:23:22;5.77;;;3.23;;
14686;SDS011;7431;49.440;11.084;2023-05-17T08:25:48;7.47;;;4.00;;
14686;SDS011;7431;49.440;11.084;2023-05-17T08:28:14;5.67;;;3.67;;
14686;SDS011;7431;49.440;11.084;2023-05-17T08:30:40;6.63;;;3.40;;
14686;SDS011;7431;49.440;11.084;2023-05-17T08:33:09;8.35;;;3.42;;
14686;SDS011;7431;49.440;11.084;2023-05-17T08:35:35;9.93;;;3.85;;
14686;SDS011;7431;49.440;11.084;2023-05-17T08:38:01;8.37;;;3.23;;
14686;SDS011;7431;49.440;11.084;2023-05-17T08:40:27;17.27;;;4.80;;
14686;SDS011;7431;49.440;11.084;2023-05-17T08:42:53;5.40;;;3.57;;
14686;SDS011;7431;49.440;11.084;2023-05-17T08:45:19;13.67;;;6.67;;
14686;SDS011;7431;49.440;11.084;2023-05-17T08:47:46;9.60;;;4.40;;
14686;SDS011;7431;49.440;11.084;2023-05-17T08:50:13;21.40;;;5.73;;
14686;SDS011;7431;49.440;11.084;2023-05-17T08:52:40;5.63;;;3.60;;
14686;SDS011;7431;49.440;11.084;2023-05-17T08:55:06;8.17;;;3.17;;
14686;SDS011;7431;49.440;11.084;2023-05-17T08:57:33;7.47;;;3.93;;
14686;SDS011;7431;49.440;11.084;2023-05-17T09:00:01;5.60;;;3.57;;
14686;SDS011;7431;49.440;11.084;2023-05-17T09:02:39;11.60;;;3.77;;
14686;SDS011;7431;49.440;11.084;2023-05-17T09:05:06;6.60;;;3.37;;
14686;SDS011;7431;49.440;11.084;2023-05-17T09:07:33;10.30;;;4.40;;
14686;SDS011;7431;49.440;11.084;2023-05-17T09:09:59;7.33;;;3.83;;
14686;SDS011;7431;49.440;11.084;2023-05-17T09:12:30;5.87;;;3.90;;
14686;SDS011;7431;49.440;11.084;2023-05-17T09:15:10;6.90;;;3.70;;
14686;SDS011;7431;49.440;11.084;2023-05-17T09:17:37;8.37;;;3.83;;
14686;SDS011;7431;49.440;11.084;2023-05-17T09:20:03;6.60;;;4.23;;
14686;SDS011;7431;49.440;11.084;2023-05-17T09:22:30;6.30;;;4.27;;
14686;SDS011;7431;49.440;11.084;2023-05-17T09:24:56;6.63;;;3.83;;
14686;SDS011;7431;49.440;11.084;2023-05-17T09:27:26;6.40;;;3.07;;
14686;SDS011;7431;49.440;11.084;2023-05-17T09:29:55;19.23;;;11.37;;
14686;SDS011;7431;49.440;11.084;2023-05-17T09:32:22;7.13;;;4.10;;
14686;SDS011;7431;49.440;11.084;2023-05-17T09:34:52;5.50;;;3.70;;
14686;SDS011;7431;49.440;11.084;2023-05-17T09:37:20;7.13;;;4.50;;
14686;SDS011;7431;49.440;11.084;2023-05-17T09:39:46;14.37;;;7.37;;
14686;SDS011;7431;49.440;11.084;2023-05-17T09:42:13;10.47;;;6.93;;
14686;SDS011;7431;49.440;11.084;2023-05-17T09:44:50;2.87;;;2.57;;
14686;SDS011;7431;49.440;11.084;2023-05-17T09:47:27;5.60;;;3.43;;
14686;SDS011;7431;49.440;11.084;2023-05-17T09:49:57;6.60;;;3.53;;
14686;SDS011;7431;49.440;11.084;2023-05-17T09:52:24;6.60;;;3.47;;
14686;SDS011;7431;49.440;11.084;2023-05-17T09:54:56;4.90;;;3.80;;
14686;SDS011;7431;49.440;11.084;2023-05-17T09:57:23;6.43;;;3.50;;
14686;SDS011;7431;49.440;11.084;2023-05-17T09:59:50;6.13;;;4.43;;
14686;SDS011;7431;49.440;11.084;2023-05-17T10:02:20;8.10;;;4.47;;
14686;SDS011;7431;49.440;11.084;2023-05-17T10:04:49;5.63;;;3.67;;
14686;SDS011;7431;49.440;11.084;2023-05-17T10:07:18;9.17;;;3.57;;
14686;SDS011;7431;49.440;11.084;2023-05-17T10:09:45;5.87;;;3.10;;
14686;SDS011;7431;49.440;11.084;2023-05-17T10:12:15;5.07;;;3.23;;
14686;SDS011;7431;49.440;11.084;2023-05-17T10:14:42;3.73;;;2.67;;
14686;SDS011;7431;49.440;11.084;2023-05-17T10:17:09;11.50;;;7.40;;
14686;SDS011;7431;49.440;11.084;2023-05-17T10:19:35;6.23;;;3.43;;
14686;SDS011;7431;49.440;11.084;2023-05-17T10:22:02;9.27;;;5.03;;
14686;SDS011;7431;49.440;11.084;2023-05-17T10:24:28;7.30;;;4.13;;
14686;SDS011;7431;49.440;11.084;2023-05-17T10:26:55;9.10;;;5.43;;
14686;SDS011;7431;49.440;11.084;2023-05-17T10:29:21;11.07;;;7.00;;
14686;SDS011;7431;49.440;11.084;2023-05-17T10:31:50;10.87;;;6.40;;
14686;SDS011;7431;49.440;11.084;2023-05-17T10:34:17;17.17;;;10.47;;
14686;SDS011;7431;49.440;11.084;2023-05-17T10:36:43;14.53;;;8.87;;
14686;SDS011;7431;49.440;11.084;2023-05-17T10:39:10;9.83;;;6.37;;
14686;SDS011;7431;49.440;11.084;2023-05-17T10:41:38;12.73;;;7.40;;
14686;SDS011;7431;49.440;11.084;2023-05-17T10:44:05;12.53;;;6.20;;
14686;SDS011;7431;49.440;11.084;2023-05-17T10:46:33;11.98;;;7.68;;
14686;SDS011;7431;49.440;11.084;2023-05-17T10:48:59;12.90;;;6.77;;
14686;SDS011;7431;49.440;11.084;2023-05-17T10:51:32;7.53;;;4.80;;
14686;SDS011;7431;49.440;11.084;2023-05-17T10:56:31;5.77;;;3.70;;
14686;SDS011;7431;49.440;11.084;2023-05-17T11:01:52;12.03;;;5.80;;
14686;SDS011;7431;49.440;11.084;2023-05-17T11:04:21;10.43;;;6.27;;
14686;SDS011;7431;49.440;11.084;2023-05-17T11:06:48;6.43;;;4.90;;
14686;SDS011;7431;49.440;11.084;2023-05-17T11:09:14;8.73;;;6.20;;
14686;SDS011;7431;49.440;11.084;2023-05-17T11:12:02;10.13;;;6.20;;
14686;SDS011;7431;49.440;11.084;2023-05-17T11:14:26;10.67;;;6.13;;
14686;SDS011;7431;49.440;11.084;2023-05-17T11:16:55;12.00;;;7.47;;
14686;SDS011;7431;49.440;11.084;2023-05-17T11:19:21;14.90;;;7.87;;
14686;SDS011;7431;49.440;11.084;2023-05-17T11:21:47;9.73;;;6.40;;
14686;SDS011;7431;49.440;11.084;2023-05-17T11:24:24;5.17;;;3.00;;
14686;SDS011;7431;49.440;11.084;2023-05-17T11:26:53;5.43;;;3.00;;
14686;SDS011;7431;49.440;11.084;2023-05-17T11:29:20;6.87;;;3.50;;
14686;SDS011;7431;49.440;11.084;2023-05-17T11:31:53;7.13;;;3.90;;
14686;SDS011;7431;49.440;11.084;2023-05-17T11:34:19;9.03;;;4.60;;
14686;SDS011;7431;49.440;11.084;2023-05-17T11:36:50;10.67;;;3.90;;
14686;SDS011;7431;49.440;11.084;2023-05-17T11:39:18;6.83;;;3.57;;
14686;SDS011;7431;49.440;11.084;2023-05-17T11:41:52;6.30;;;3.50;;
14686;SDS011;7431;49.440;11.084;2023-05-17T11:44:28;7.37;;;3.87;;
14686;SDS011;7431;49.440;11.084;2023-05-17T11:47:04;5.67;;;3.33;;
14686;SDS011;7431;49.440;11.084;2023-05-17T11:49:35;7.60;;;3.60;;
14686;SDS011;7431;49.440;11.084;2023-05-17T11:52:01;6.97;;;3.73;;
14686;SDS011;7431;49.440;11.084;2023-05-17T11:54:27;5.13;;;3.40;;
14686;SDS011;7431;49.440;11.084;2023-05-17T11:56:54;5.60;;;3.57;;
14686;SDS011;7431;49.440;11.084;2023-05-17T11:59:21;19.80;;;12.13;;
14686;SDS011;7431;49.440;11.084;2023-05-17T12:01:48;8.47;;;5.60;;
14686;SDS011;7431;49.440;11.084;2023-05-17T12:04:21;13.27;;;8.93;;
14686;SDS011;7431;49.440;11.084;2023-05-17T12:06:48;4.50;;;3.03;;
14686;SDS011;7431;49.440;11.084;2023-05-17T12:09:15;5.50;;;3.60;;
14686;SDS011;7431;49.440;11.084;2023-05-17T12:11:41;11.37;;;7.07;;
14686;SDS011;7431;49.440;11.084;2023-05-17T12:14:07;6.70;;;4.30;;
14686;SDS011;7431;49.440;11.084;2023-05-17T12:16:35;5.70;;;3.80;;
14686;SDS011;7431;49.440;11.084;2023-05-17T12:19:01;7.40;;;3.90;;
14686;SDS011;7431;49.440;11.084;2023-05-17T12:21:27;5.63;;;3.07;;
14686;SDS011;7431;49.440;11.084;2023-05-17T12:23:53;5.83;;;3.63;;
14686;SDS011;7431;49.440;11.084;2023-05-17T12:26:20;3.63;;;3.07;;
14686;SDS011;7431;49.440;11.084;2023-05-17T12:28:54;7.23;;;3.63;;
14686;SDS011;7431;49.440;11.084;2023-05-17T12:31:24;5.97;;;3.70;;
14686;SDS011;7431;49.440;11.084;2023-05-17T12:33:51;7.50;;;3.83;;
14686;SDS011;7431;49.440;11.084;2023-05-17T12:36:17;5.60;;;3.67;;
14686;SDS011;7431;49.440;11.084;2023-05-17T12:38:43;5.20;;;3.70;;
14686;SDS011;7431;49.440;11.084;2023-05-17T12:41:11;8.65;;;4.72;;
14686;SDS011;7431;49.440;11.084;2023-05-17T12:43:37;7.37;;;4.20;;
14686;SDS011;7431;49.440;11.084;2023-05-17T12:46:07;7.87;;;3.87;;
14686;SDS011;7431;49.440;11.084;2023-05-17T12:48:37;5.43;;;3.07;;
14686;SDS011;7431;49.440;11.084;2023-05-17T12:53:38;5.83;;;3.80;;
14686;SDS011;7431;49.440;11.084;2023-05-17T12:56:05;5.87;;;3.23;;
14686;SDS011;7431;49.440;11.084;2023-05-17T12:58:31;4.27;;;3.00;;
14686;SDS011;7431;49.440;11.084;2023-05-17T13:01:01;6.20;;;3.50;;
14686;SDS011;7431;49.440;11.084;2023-05-17T13:03:29;6.00;;;3.73;;
14686;SDS011;7431;49.440;11.084;2023-05-17T13:06:05;9.30;;;3.90;;
14686;SDS011;7431;49.440;11.084;2023-05-17T13:08:33;8.57;;;4.07;;
14686;SDS011;7431;49.440;11.084;2023-05-17T13:11:06;4.93;;;3.60;;
14686;SDS011;7431;49.440;11.084;2023-05-17T13:13:32;4.83;;;3.67;;
14686;SDS011;7431;49.440;11.084;2023-05-17T13:15:58;5.33;;;3.60;;
14686;SDS011;7431;49.440;11.084;2023-05-17T13:18:24;6.70;;;4.00;;
14686;SDS011;7431;49.440;11.084;2023-05-17T13:20:50;6.67;;;4.13;;
14686;SDS011;7431;49.440;11.084;2023-05-17T13:23:16;6.27;;;3.50;;
14686;SDS011;7431;49.440;11.084;2023-05-17T13:25:42;5.63;;;3.40;;
14686;SDS011;7431;49.440;11.084;2023-05-17T13:28:08;5.53;;;3.70;;
14686;SDS011;7431;49.440;11.084;2023-05-17T13:30:34;20.57;;;13.23;;
14686;SDS011;7431;49.440;11.084;2023-05-17T13:33:00;4.63;;;3.23;;
14686;SDS011;7431;49.440;11.084;2023-05-17T13:35:26;7.37;;;5.33;;
14686;SDS011;7431;49.440;11.084;2023-05-17T13:37:52;9.13;;;4.60;;
14686;SDS011;7431;49.440;11.084;2023-05-17T13:40:18;10.33;;;6.40;;
14686;SDS011;7431;49.440;11.084;2023-05-17T13:42:44;9.40;;;6.70;;
14686;SDS011;7431;49.440;11.084;2023-05-17T13:45:11;8.53;;;4.93;;
14686;SDS011;7431;49.440;11.084;2023-05-17T13:47:37;6.20;;;4.27;;
14686;SDS011;7431;49.440;11.084;2023-05-17T13:50:04;6.20;;;4.00;;
14686;SDS011;7431;49.440;11.084;2023-05-17T13:52:30;5.53;;;4.17;;
14686;SDS011;7431;49.440;11.084;2023-05-17T13:54:56;4.57;;;3.55;;
14686;SDS011;7431;49.440;11.084;2023-05-17T13:57:22;6.27;;;4.23;;
14686;SDS011;7431;49.440;11.084;2023-05-17T13:59:48;5.80;;;4.22;;
14686;SDS011;7431;49.440;11.084;2023-05-17T14:02:14;5.57;;;4.15;;
14686;SDS011;7431;49.440;11.084;2023-05-17T14:04:40;8.85;;;5.90;;
14686;SDS011;7431;49.440;11.084;2023-05-17T14:07:06;9.52;;;5.50;;
14686;SDS011;7431;49.440;11.084;2023-05-17T14:09:35;6.32;;;4.05;;
14686;SDS011;7431;49.440;11.084;2023-05-17T14:12:01;5.82;;;3.38;;
14686;SDS011;7431;49.440;11.084;2023-05-17T14:14:28;5.43;;;3.23;;
14686;SDS011;7431;49.440;11.084;2023-05-17T14:16:54;7.63;;;4.00;;
14686;SDS011;7431;49.440;11.084;2023-05-17T14:19:20;6.65;;;3.72;;
14686;SDS011;7431;49.440;11.084;2023-05-17T14:21:46;5.07;;;3.23;;
14686;SDS011;7431;49.440;11.084;2023-05-17T14:24:14;6.17;;;3.57;;
14686;SDS011;7431;49.440;11.084;2023-05-17T14:26:40;4.63;;;3.53;;
14686;SDS011;7431;49.440;11.084;2023-05-17T14:29:06;6.80;;;3.80;;
14686;SDS011;7431;49.440;11.084;2023-05-17T14:31:32;6.23;;;3.70;;
14686;SDS011;7431;49.440;11.084;2023-05-17T14:33:58;5.20;;;3.40;;
14686;SDS011;7431;49.440;11.084;2023-05-17T14:36:25;3.77;;;2.37;;
14686;SDS011;7431;49.440;11.084;2023-05-17T14:38:51;4.33;;;3.30;;
14686;SDS011;7431;49.440;11.084;2023-05-17T14:41:17;6.07;;;2.93;;
14686;SDS011;7431;49.440;11.084;2023-05-17T14:43:43;4.73;;;3.23;;
14686;SDS011;7431;49.440;11.084;2023-05-17T14:46:09;5.30;;;3.40;;
14686;SDS011;7431;49.440;11.084;2023-05-17T14:48:35;4.67;;;3.00;;
14686;SDS011;7431;49.440;11.084;2023-05-17T14:51:01;6.27;;;3.27;;
14686;SDS011;7431;49.440;11.084;2023-05-17T14:53:28;5.47;;;3.13;;
14686;SDS011;7431;49.440;11.084;2023-05-17T14:55:54;5.23;;;3.40;;
14686;SDS011;7431;49.440;11.084;2023-05-17T14:58:20;5.43;;;3.40;;
14686;SDS011;7431;49.440;11.084;2023-05-17T15:00:46;5.10;;;3.60;;
14686;SDS011;7431;49.440;11.084;2023-05-17T15:03:15;6.93;;;3.63;;
14686;SDS011;7431;49.440;11.084;2023-05-17T15:05:42;8.07;;;4.47;;
14686;SDS011;7431;49.440;11.084;2023-05-17T15:08:08;6.07;;;3.50;;